createdAt,value
2023-03-07T00:00:02.914Z,100
2023-03-07T00:05:02.808Z,100
2023-03-07T00:10:03.446Z,100
2023-03-07T00:15:03.256Z,100
2023-03-07T00:20:02.734Z,100
2023-03-07T00:25:02.959Z,100
2023-03-07T00:30:02.587Z,100
2023-03-07T00:35:02.676Z,100
2023-03-07T00:40:02.485Z,100
2023-03-07T00:45:03.364Z,100
2023-03-07T00:50:03.204Z,100
2023-03-07T00:55:03.735Z,100
2023-03-07T01:00:03.007Z,100
2023-03-07T01:05:02.625Z,100
2023-03-07T01:10:03.425Z,100
2023-03-07T01:15:03.263Z,100
2023-03-07T01:20:03.160Z,100
2023-03-07T01:25:03.367Z,100
2023-03-07T01:30:03.148Z,100
2023-03-07T01:35:03.173Z,100
2023-03-07T01:40:02.918Z,100
2023-03-07T01:45:02.712Z,100
2023-03-07T01:50:02.839Z,100
2023-03-07T01:55:03.636Z,100
2023-03-07T02:00:03.224Z,100
2023-03-07T02:05:02.989Z,100
2023-03-07T02:10:02.795Z,100
2023-03-07T02:15:02.976Z,100
2023-03-07T02:20:02.645Z,100
2023-03-07T02:25:03.416Z,100
2023-03-07T02:30:03.139Z,100
2023-03-07T02:35:02.813Z,100
2023-03-07T02:40:02.787Z,100
2023-03-07T02:45:02.870Z,100
2023-03-07T02:50:03.534Z,100
2023-03-07T02:55:03.745Z,100
2023-03-07T03:00:03.054Z,100
2023-03-07T03:05:03.679Z,100
2023-03-07T03:10:02.962Z,100
2023-03-07T03:15:02.850Z,100
2023-03-07T03:20:03.523Z,100
2023-03-07T03:25:03.098Z,100
2023-03-07T03:30:02.919Z,100
2023-03-07T03:35:02.629Z,100
2023-03-07T03:40:02.520Z,100
2023-03-07T03:45:03.358Z,99.63
2023-03-07T03:50:03.114Z,99.21
2023-03-07T03:55:03.360Z,99.51
2023-03-07T04:00:02.761Z,99.09
2023-03-07T04:05:02.664Z,98.36
2023-03-07T04:10:03.411Z,97.27
2023-03-07T04:15:03.236Z,97.03
2023-03-07T04:20:02.923Z,97
2023-03-07T04:25:02.706Z,97.97
2023-03-07T04:30:03.525Z,98.94
2023-03-07T04:35:03.286Z,99.49
2023-03-07T04:40:03.278Z,100
2023-03-07T04:45:05.195Z,100
2023-03-07T04:50:02.662Z,100
2023-03-07T04:55:02.718Z,100
2023-03-07T05:00:03.327Z,100
2023-03-07T05:05:03.060Z,100
2023-03-07T05:10:02.846Z,100
2023-03-07T05:15:02.741Z,100
2023-03-07T05:20:02.570Z,100
2023-03-07T05:25:03.359Z,100
2023-03-07T05:30:03.263Z,100
2023-03-07T05:35:02.993Z,100
2023-03-07T05:40:02.828Z,100
2023-03-07T05:45:02.669Z,100
2023-03-07T05:50:03.354Z,100
2023-03-07T05:55:03.829Z,100
2023-03-07T06:00:03.090Z,100
2023-03-07T06:05:02.842Z,100
2023-03-07T06:10:02.655Z,100
2023-03-07T06:15:02.869Z,100
2023-03-07T06:20:02.720Z,100
2023-03-07T06:25:03.435Z,100
2023-03-07T06:30:03.202Z,100
2023-03-07T06:35:02.795Z,100
2023-03-07T06:40:02.962Z,99.43
2023-03-07T06:45:02.927Z,98.16
2023-03-07T06:50:02.739Z,98.45
2023-03-07T06:55:03.906Z,97.25
2023-03-07T07:00:03.418Z,96.51
2023-03-07T07:05:03.164Z,96.61
2023-03-07T07:10:02.516Z,96.09
2023-03-07T07:15:02.835Z,96.07
2023-03-07T07:20:02.797Z,95.44
2023-03-07T07:25:03.412Z,95.43
2023-03-07T07:30:03.475Z,95.4
2023-03-07T07:35:03.264Z,93.84
2023-03-07T07:40:02.998Z,94.81
2023-03-07T07:50:03.403Z,92.8
2023-03-07T07:55:03.514Z,93.77
2023-03-07T08:00:03.257Z,92.36
2023-03-07T08:05:02.846Z,93.79
2023-03-07T08:10:02.937Z,93.82
2023-03-07T08:15:02.702Z,93.72
2023-03-07T08:20:03.474Z,92.3
2023-03-07T08:25:03.153Z,91.48
2023-03-07T08:30:02.929Z,92.69
2023-03-07T08:35:03.236Z,90.72
2023-03-07T08:40:03.074Z,91
2023-03-07T08:45:02.935Z,90.12
2023-03-07T08:50:02.661Z,92.07
2023-03-07T08:55:02.896Z,90.83
2023-03-07T09:00:02.754Z,91.3
2023-03-07T09:05:03.724Z,93.4
2023-03-07T09:10:03.100Z,92.67
2023-03-07T09:15:02.901Z,93.44
2023-03-07T09:20:02.636Z,94.09
2023-03-07T09:25:03.317Z,94.4
2023-03-07T09:30:03.155Z,93.96
2023-03-07T09:35:02.890Z,93.77
2023-03-07T09:40:02.718Z,93.66
2023-03-07T09:45:03.451Z,91.9
2023-03-07T09:50:03.245Z,92.6
2023-03-07T09:55:03.808Z,93.64
2023-03-07T10:00:02.875Z,92.92
2023-03-07T10:05:03.416Z,92.37
2023-03-07T10:10:03.272Z,90.87
2023-03-07T10:15:03.098Z,93.15
2023-03-07T10:20:03.333Z,93.45
2023-03-07T10:25:02.921Z,93.64
2023-03-07T10:30:02.857Z,93.38
2023-03-07T10:35:03.451Z,96.12
2023-03-07T10:40:04.940Z,96.48
2023-03-07T10:45:03.104Z,96.31
2023-03-07T10:50:03.212Z,97.2
2023-03-07T11:00:03.188Z,96.21
2023-03-07T11:05:03.658Z,95.57
2023-03-07T11:10:03.296Z,96.3
2023-03-07T11:15:03.245Z,95.05
2023-03-07T11:20:03.061Z,98.06
2023-03-07T11:25:02.939Z,96.02
2023-03-07T11:35:03.106Z,93.78
2023-03-07T11:40:03.309Z,94.4
2023-03-07T11:45:03.019Z,91.99
2023-03-07T11:50:03.154Z,94.11
2023-03-07T11:55:03.360Z,91.42
2023-03-07T12:00:02.718Z,91.11
2023-03-07T12:05:03.467Z,90.41
2023-03-07T12:10:03.215Z,89.19
2023-03-07T12:15:03.422Z,90.05
2023-03-07T12:20:03.109Z,89.53
2023-03-07T12:25:02.990Z,87.03
2023-03-07T12:30:03.514Z,87.76
2023-03-07T12:35:03.244Z,88.35
2023-03-07T12:40:03.141Z,88.08
2023-03-07T12:45:03.115Z,89.14
2023-03-07T12:50:03.038Z,89.76
2023-03-07T12:55:03.201Z,90.17
2023-03-07T13:00:02.884Z,88.46
2023-03-07T13:05:02.562Z,100
2023-03-07T13:10:03.262Z,100
2023-03-07T13:15:03.089Z,100
2023-03-07T13:20:02.831Z,100
2023-03-07T13:25:02.777Z,100
2023-03-07T13:30:02.594Z,100
2023-03-07T13:35:03.272Z,100
2023-03-07T13:40:03.064Z,100
2023-03-07T13:45:03.030Z,100
2023-03-07T13:50:03.146Z,100
2023-03-07T13:55:03.509Z,100
2023-03-07T14:00:02.621Z,100
2023-03-07T14:05:03.227Z,100
2023-03-07T14:10:25.175Z,100
2023-03-07T14:15:02.971Z,100
2023-03-07T14:20:02.869Z,100
2023-03-07T14:25:03.003Z,100
2023-03-07T14:30:02.633Z,100
2023-03-07T14:35:03.317Z,100
2023-03-07T14:40:03.237Z,100
2023-03-07T14:45:03.049Z,100
2023-03-07T14:50:02.730Z,100
2023-03-07T14:55:04.220Z,100
2023-03-07T15:00:03.248Z,100
2023-03-07T15:05:02.980Z,100
2023-03-07T15:10:02.668Z,100
2023-03-07T15:15:03.164Z,100
2023-03-07T15:20:03.414Z,100
2023-03-07T15:25:02.481Z,100
2023-03-07T15:30:03.384Z,100
2023-03-07T15:35:03.180Z,100
2023-03-07T15:40:03.330Z,100
2023-03-07T15:45:02.806Z,100
2023-03-07T15:50:02.710Z,100
2023-03-07T15:55:03.023Z,100
2023-03-07T16:00:03.515Z,100
2023-03-07T16:05:03.242Z,100
2023-03-07T16:10:03.457Z,100
2023-03-07T16:15:03.506Z,100
2023-03-07T16:20:03.505Z,100
2023-03-07T16:25:02.995Z,100
2023-03-07T16:30:02.950Z,100
2023-03-07T16:35:03.475Z,100
2023-03-07T16:40:03.209Z,100
2023-03-07T16:45:03.000Z,100
2023-03-07T16:50:02.737Z,100
2023-03-07T16:55:03.480Z,100
2023-03-07T17:00:03.753Z,100
2023-03-07T17:05:03.079Z,100
2023-03-07T17:10:02.830Z,100
2023-03-07T17:15:02.887Z,100
2023-03-07T17:20:02.807Z,100
2023-03-07T17:25:02.923Z,100
2023-03-07T17:30:02.846Z,100
2023-03-07T17:35:03.378Z,100
2023-03-07T17:40:03.067Z,100
2023-03-07T17:45:02.809Z,100
2023-03-07T17:50:03.450Z,100
2023-03-07T17:55:03.878Z,100
2023-03-07T18:00:03.313Z,100
2023-03-07T18:05:02.969Z,100
2023-03-07T18:10:09.260Z,100
2023-03-07T18:15:03.164Z,100
2023-03-07T18:20:03.241Z,100
2023-03-07T18:25:02.717Z,100
2023-03-07T18:30:02.888Z,100
2023-03-07T18:35:02.548Z,100
2023-03-07T18:40:02.566Z,100
2023-03-07T18:45:03.402Z,100
2023-03-07T18:50:03.067Z,100
2023-03-07T18:55:03.788Z,100
2023-03-07T19:00:02.933Z,100
2023-03-07T19:05:02.620Z,100
2023-03-07T19:10:03.704Z,100
2023-03-07T19:15:03.552Z,100
2023-03-07T19:20:03.332Z,100
2023-03-07T19:25:03.056Z,100
2023-03-07T19:30:03.018Z,100
2023-03-07T19:35:02.691Z,100
2023-03-07T19:40:03.403Z,100
2023-03-07T19:45:03.265Z,100
2023-03-07T19:50:02.832Z,100
2023-03-07T19:55:02.940Z,100
2023-03-07T20:00:02.667Z,100
2023-03-07T20:05:03.352Z,100
2023-03-07T20:10:03.147Z,100
2023-03-07T20:15:03.018Z,100
2023-03-07T20:20:03.256Z,100
2023-03-07T20:25:02.898Z,100
2023-03-07T20:30:02.645Z,100
2023-03-07T20:35:02.671Z,100
2023-03-07T20:40:05.113Z,100
2023-03-07T20:45:03.393Z,100
2023-03-07T20:50:02.508Z,100
2023-03-07T20:55:03.992Z,100
2023-03-07T21:00:02.868Z,100
2023-03-07T21:05:03.392Z,100
2023-03-07T21:10:03.392Z,100
2023-03-07T21:15:03.101Z,100
2023-03-07T21:20:02.757Z,100
2023-03-07T21:25:06.770Z,100
2023-03-07T21:30:03.540Z,100
2023-03-07T21:35:03.282Z,100
2023-03-07T21:40:03.429Z,100
2023-03-07T21:45:02.917Z,100
2023-03-07T21:50:03.159Z,100
2023-03-07T21:55:02.679Z,100
2023-03-07T22:00:03.372Z,100
2023-03-07T22:05:03.180Z,100
2023-03-07T22:10:02.862Z,100
2023-03-07T22:15:02.928Z,100
2023-03-07T22:20:02.685Z,100
2023-03-07T22:25:03.415Z,100
2023-03-07T22:30:03.274Z,100
2023-03-07T22:35:02.955Z,100
2023-03-07T22:40:03.025Z,100
2023-03-07T22:45:02.798Z,100
2023-03-07T22:50:03.474Z,100
2023-03-07T22:55:03.653Z,100
2023-03-07T23:00:02.897Z,100
2023-03-07T23:05:02.711Z,100
2023-03-07T23:10:03.425Z,100
2023-03-07T23:15:02.408Z,100
2023-03-07T23:20:02.512Z,100
2023-03-07T23:25:03.375Z,100
2023-03-07T23:30:03.002Z,100
2023-03-07T23:35:02.704Z,100
2023-03-07T23:40:02.724Z,100
2023-03-07T23:45:03.375Z,100
2023-03-07T23:50:03.181Z,100
2023-03-07T23:55:03.556Z,100
